sensor_id;sensor_type;location;lat;lon;timestamp;P1;durP1;ratioP1;P2;durP2;ratioP2
5416;SDS011;2731;50.754;12.990;2023-07-24T00:00:53;3.97;;;2.65;;
5416;SDS011;2731;50.754;12.990;2023-07-24T00:03:40;4.63;;;2.75;;
5416;SDS011;2731;50.754;12.990;2023-07-24T00:06:25;2.75;;;2.17;;
5416;SDS011;2731;50.754;12.990;2023-07-24T00:09:14;5.43;;;2.97;;
5416;SDS011;2731;50.754;12.990;2023-07-24T00:11:59;4.68;;;2.78;;
5416;SDS011;2731;50.754;12.990;2023-07-24T00:14:45;3.88;;;2.90;;
5416;SDS011;2731;50.754;12.990;2023-07-24T00:17:30;3.63;;;2.90;;
5416;SDS011;2731;50.754;12.990;2023-07-24T00:20:17;4.07;;;2.53;;
5416;SDS011;2731;50.754;12.990;2023-07-24T00:23:03;4.45;;;2.88;;
5416;SDS011;2731;50.754;12.990;2023-07-24T00:25:49;3.30;;;2.17;;
5416;SDS011;2731;50.754;12.990;2023-07-24T00:28:35;4.30;;;2.63;;
5416;SDS011;2731;50.754;12.990;2023-07-24T00:31:20;3.15;;;2.45;;
5416;SDS011;2731;50.754;12.990;2023-07-24T00:34:08;4.13;;;2.70;;
5416;SDS011;2731;50.754;12.990;2023-07-24T00:36:54;4.13;;;2.47;;
5416;SDS011;2731;50.754;12.990;2023-07-24T00:39:42;4.80;;;2.97;;
5416;SDS011;2731;50.754;12.990;2023-07-24T00:42:28;6.07;;;2.85;;
5416;SDS011;2731;50.754;12.990;2023-07-24T00:45:15;3.72;;;2.45;;
5416;SDS011;2731;50.754;12.990;2023-07-24T00:48:06;4.50;;;2.58;;
5416;SDS011;2731;50.754;12.990;2023-07-24T00:50:35;4.07;;;2.70;;
5416;SDS011;2731;50.754;12.990;2023-07-24T00:53:22;4.15;;;2.88;;
5416;SDS011;2731;50.754;12.990;2023-07-24T00:56:08;4.00;;;2.85;;
5416;SDS011;2731;50.754;12.990;2023-07-24T00:58:54;4.25;;;2.78;;
5416;SDS011;2731;50.754;12.990;2023-07-24T01:01:40;3.30;;;2.40;;
5416;SDS011;2731;50.754;12.990;2023-07-24T01:04:25;3.72;;;2.42;;
5416;SDS011;2731;50.754;12.990;2023-07-24T01:07:10;4.57;;;2.95;;
5416;SDS011;2731;50.754;12.990;2023-07-24T01:10:01;4.72;;;2.67;;
5416;SDS011;2731;50.754;12.990;2023-07-24T01:15:46;4.10;;;2.85;;
5416;SDS011;2731;50.754;12.990;2023-07-24T01:18:45;3.70;;;2.58;;
5416;SDS011;2731;50.754;12.990;2023-07-24T01:21:38;5.38;;;3.22;;
5416;SDS011;2731;50.754;12.990;2023-07-24T01:27:33;3.88;;;3.05;;
5416;SDS011;2731;50.754;12.990;2023-07-24T01:30:21;7.80;;;3.10;;
5416;SDS011;2731;50.754;12.990;2023-07-24T01:32:49;3.67;;;2.50;;
5416;SDS011;2731;50.754;12.990;2023-07-24T01:35:36;10.80;;;3.30;;
5416;SDS011;2731;50.754;12.990;2023-07-24T01:38:25;4.22;;;2.90;;
5416;SDS011;2731;50.754;12.990;2023-07-24T01:41:12;4.45;;;2.90;;
5416;SDS011;2731;50.754;12.990;2023-07-24T01:44:00;6.70;;;3.10;;
5416;SDS011;2731;50.754;12.990;2023-07-24T01:46:47;3.75;;;2.95;;
5416;SDS011;2731;50.754;12.990;2023-07-24T01:49:34;4.68;;;3.25;;
5416;SDS011;2731;50.754;12.990;2023-07-24T01:52:22;4.35;;;3.00;;
5416;SDS011;2731;50.754;12.990;2023-07-24T01:55:17;4.18;;;2.97;;
5416;SDS011;2731;50.754;12.990;2023-07-24T01:58:04;3.83;;;2.65;;
5416;SDS011;2731;50.754;12.990;2023-07-24T02:00:48;3.80;;;2.63;;
5416;SDS011;2731;50.754;12.990;2023-07-24T02:03:15;4.13;;;2.78;;
5416;SDS011;2731;50.754;12.990;2023-07-24T02:05:41;4.68;;;2.83;;
5416;SDS011;2731;50.754;12.990;2023-07-24T02:08:07;5.95;;;3.60;;
5416;SDS011;2731;50.754;12.990;2023-07-24T02:10:36;3.75;;;2.78;;
5416;SDS011;2731;50.754;12.990;2023-07-24T02:15:36;4.00;;;2.95;;
5416;SDS011;2731;50.754;12.990;2023-07-24T02:18:07;6.72;;;2.58;;
5416;SDS011;2731;50.754;12.990;2023-07-24T02:20:34;5.60;;;2.92;;
5416;SDS011;2731;50.754;12.990;2023-07-24T02:23:02;4.75;;;3.10;;
5416;SDS011;2731;50.754;12.990;2023-07-24T02:25:31;4.43;;;2.97;;
5416;SDS011;2731;50.754;12.990;2023-07-24T02:28:01;3.60;;;2.60;;
5416;SDS011;2731;50.754;12.990;2023-07-24T02:30:27;4.82;;;3.00;;
5416;SDS011;2731;50.754;12.990;2023-07-24T02:32:57;4.90;;;3.15;;
5416;SDS011;2731;50.754;12.990;2023-07-24T02:35:24;4.18;;;2.95;;
5416;SDS011;2731;50.754;12.990;2023-07-24T02:37:50;4.57;;;2.70;;
5416;SDS011;2731;50.754;12.990;2023-07-24T02:40:19;4.13;;;3.38;;
5416;SDS011;2731;50.754;12.990;2023-07-24T02:42:49;4.85;;;2.60;;
5416;SDS011;2731;50.754;12.990;2023-07-24T02:45:18;5.22;;;2.85;;
5416;SDS011;2731;50.754;12.990;2023-07-24T02:47:55;4.13;;;2.75;;
5416;SDS011;2731;50.754;12.990;2023-07-24T02:50:23;3.75;;;2.85;;
5416;SDS011;2731;50.754;12.990;2023-07-24T02:52:53;3.92;;;2.90;;
5416;SDS011;2731;50.754;12.990;2023-07-24T02:55:22;4.07;;;2.95;;
5416;SDS011;2731;50.754;12.990;2023-07-24T02:57:49;4.25;;;3.05;;
5416;SDS011;2731;50.754;12.990;2023-07-24T03:00:17;4.60;;;3.20;;
5416;SDS011;2731;50.754;12.990;2023-07-24T03:02:45;8.85;;;3.55;;
5416;SDS011;2731;50.754;12.990;2023-07-24T03:05:16;4.15;;;3.20;;
5416;SDS011;2731;50.754;12.990;2023-07-24T03:07:43;5.22;;;3.33;;
5416;SDS011;2731;50.754;12.990;2023-07-24T03:10:29;4.68;;;3.13;;
5416;SDS011;2731;50.754;12.990;2023-07-24T03:13:17;3.78;;;2.72;;
5416;SDS011;2731;50.754;12.990;2023-07-24T03:16:04;3.90;;;2.80;;
5416;SDS011;2731;50.754;12.990;2023-07-24T03:18:52;5.50;;;3.20;;
5416;SDS011;2731;50.754;12.990;2023-07-24T03:21:39;8.52;;;3.95;;
5416;SDS011;2731;50.754;12.990;2023-07-24T03:24:06;4.30;;;2.65;;
5416;SDS011;2731;50.754;12.990;2023-07-24T03:26:52;3.30;;;2.80;;
5416;SDS011;2731;50.754;12.990;2023-07-24T03:29:39;4.93;;;3.30;;
5416;SDS011;2731;50.754;12.990;2023-07-24T03:32:27;5.32;;;3.50;;
5416;SDS011;2731;50.754;12.990;2023-07-24T03:35:13;4.97;;;3.28;;
5416;SDS011;2731;50.754;12.990;2023-07-24T03:38:00;4.47;;;2.90;;
5416;SDS011;2731;50.754;12.990;2023-07-24T03:40:48;5.43;;;3.45;;
5416;SDS011;2731;50.754;12.990;2023-07-24T03:43:17;5.88;;;3.08;;
5416;SDS011;2731;50.754;12.990;2023-07-24T03:46:02;4.35;;;3.00;;
5416;SDS011;2731;50.754;12.990;2023-07-24T03:48:48;4.82;;;3.22;;
5416;SDS011;2731;50.754;12.990;2023-07-24T03:51:35;4.82;;;3.17;;
5416;SDS011;2731;50.754;12.990;2023-07-24T03:54:23;4.28;;;2.83;;
5416;SDS011;2731;50.754;12.990;2023-07-24T03:57:10;6.38;;;3.53;;
5416;SDS011;2731;50.754;12.990;2023-07-24T03:59:55;4.80;;;3.65;;
5416;SDS011;2731;50.754;12.990;2023-07-24T04:02:41;6.80;;;3.63;;
5416;SDS011;2731;50.754;12.990;2023-07-24T04:05:29;5.93;;;4.07;;
5416;SDS011;2731;50.754;12.990;2023-07-24T04:08:14;5.95;;;3.65;;
5416;SDS011;2731;50.754;12.990;2023-07-24T04:11:03;5.95;;;3.40;;
5416;SDS011;2731;50.754;12.990;2023-07-24T04:13:51;5.93;;;3.83;;
5416;SDS011;2731;50.754;12.990;2023-07-24T04:16:17;5.43;;;3.30;;
5416;SDS011;2731;50.754;12.990;2023-07-24T04:19:06;5.55;;;3.53;;
5416;SDS011;2731;50.754;12.990;2023-07-24T04:21:50;5.93;;;3.80;;
5416;SDS011;2731;50.754;12.990;2023-07-24T04:24:35;5.00;;;3.63;;
5416;SDS011;2731;50.754;12.990;2023-07-24T04:27:20;5.57;;;3.67;;
5416;SDS011;2731;50.754;12.990;2023-07-24T04:30:07;5.32;;;3.60;;
5416;SDS011;2731;50.754;12.990;2023-07-24T04:32:54;5.22;;;3.80;;
5416;SDS011;2731;50.754;12.990;2023-07-24T04:35:39;6.57;;;4.00;;
5416;SDS011;2731;50.754;12.990;2023-07-24T04:38:30;5.53;;;3.60;;
5416;SDS011;2731;50.754;12.990;2023-07-24T04:41:15;7.43;;;4.35;;
5416;SDS011;2731;50.754;12.990;2023-07-24T04:44:02;5.95;;;3.60;;
5416;SDS011;2731;50.754;12.990;2023-07-24T04:46:49;6.68;;;4.10;;
5416;SDS011;2731;50.754;12.990;2023-07-24T04:49:36;5.45;;;3.38;;
5416;SDS011;2731;50.754;12.990;2023-07-24T04:52:22;6.22;;;3.90;;
5416;SDS011;2731;50.754;12.990;2023-07-24T04:55:07;6.70;;;4.47;;
5416;SDS011;2731;50.754;12.990;2023-07-24T04:57:53;6.78;;;4.28;;
5416;SDS011;2731;50.754;12.990;2023-07-24T05:00:39;5.88;;;4.18;;
5416;SDS011;2731;50.754;12.990;2023-07-24T05:03:24;6.25;;;3.90;;
5416;SDS011;2731;50.754;12.990;2023-07-24T05:06:11;6.13;;;4.05;;
5416;SDS011;2731;50.754;12.990;2023-07-24T05:08:57;6.60;;;3.95;;
5416;SDS011;2731;50.754;12.990;2023-07-24T05:11:44;6.03;;;3.95;;
5416;SDS011;2731;50.754;12.990;2023-07-24T05:14:29;6.40;;;3.83;;
5416;SDS011;2731;50.754;12.990;2023-07-24T05:17:16;5.63;;;3.70;;
5416;SDS011;2731;50.754;12.990;2023-07-24T05:20:04;8.48;;;4.90;;
5416;SDS011;2731;50.754;12.990;2023-07-24T05:23:00;7.05;;;4.43;;
5416;SDS011;2731;50.754;12.990;2023-07-24T05:25:46;6.38;;;3.65;;
5416;SDS011;2731;50.754;12.990;2023-07-24T05:28:33;5.28;;;3.47;;
5416;SDS011;2731;50.754;12.990;2023-07-24T05:31:19;7.55;;;3.95;;
5416;SDS011;2731;50.754;12.990;2023-07-24T05:34:06;8.15;;;4.13;;
5416;SDS011;2731;50.754;12.990;2023-07-24T05:36:52;5.85;;;3.90;;
5416;SDS011;2731;50.754;12.990;2023-07-24T05:39:37;5.45;;;3.63;;
5416;SDS011;2731;50.754;12.990;2023-07-24T05:42:24;5.72;;;3.83;;
5416;SDS011;2731;50.754;12.990;2023-07-24T05:45:11;5.28;;;3.72;;
5416;SDS011;2731;50.754;12.990;2023-07-24T05:47:59;9.57;;;4.75;;
5416;SDS011;2731;50.754;12.990;2023-07-24T05:50:44;5.28;;;3.80;;
5416;SDS011;2731;50.754;12.990;2023-07-24T05:53:33;7.50;;;4.32;;
5416;SDS011;2731;50.754;12.990;2023-07-24T05:56:19;7.35;;;4.45;;
5416;SDS011;2731;50.754;12.990;2023-07-24T05:59:05;6.95;;;4.07;;
5416;SDS011;2731;50.754;12.990;2023-07-24T06:01:51;6.43;;;3.95;;
5416;SDS011;2731;50.754;12.990;2023-07-24T06:04:38;5.55;;;3.25;;
5416;SDS011;2731;50.754;12.990;2023-07-24T06:07:23;6.03;;;3.80;;
5416;SDS011;2731;50.754;12.990;2023-07-24T06:10:10;6.28;;;3.95;;
5416;SDS011;2731;50.754;12.990;2023-07-24T06:12:56;6.50;;;3.90;;
5416;SDS011;2731;50.754;12.990;2023-07-24T06:15:49;4.85;;;3.63;;
5416;SDS011;2731;50.754;12.990;2023-07-24T06:18:36;6.25;;;4.30;;
5416;SDS011;2731;50.754;12.990;2023-07-24T06:21:25;6.13;;;4.00;;
5416;SDS011;2731;50.754;12.990;2023-07-24T06:24:12;6.28;;;4.10;;
5416;SDS011;2731;50.754;12.990;2023-07-24T06:26:57;4.90;;;3.50;;
5416;SDS011;2731;50.754;12.990;2023-07-24T06:29:46;8.02;;;4.32;;
5416;SDS011;2731;50.754;12.990;2023-07-24T06:32:15;5.90;;;3.90;;
5416;SDS011;2731;50.754;12.990;2023-07-24T06:35:04;7.90;;;4.35;;
5416;SDS011;2731;50.754;12.990;2023-07-24T06:37:50;6.60;;;4.05;;
5416;SDS011;2731;50.754;12.990;2023-07-24T06:40:37;6.63;;;4.32;;
5416;SDS011;2731;50.754;12.990;2023-07-24T06:43:24;5.70;;;4.10;;
5416;SDS011;2731;50.754;12.990;2023-07-24T06:46:09;6.95;;;4.38;;
5416;SDS011;2731;50.754;12.990;2023-07-24T06:48:55;7.95;;;4.05;;
5416;SDS011;2731;50.754;12.990;2023-07-24T06:51:42;6.25;;;3.97;;
5416;SDS011;2731;50.754;12.990;2023-07-24T06:54:29;7.20;;;4.10;;
5416;SDS011;2731;50.754;12.990;2023-07-24T06:57:15;5.53;;;4.03;;
5416;SDS011;2731;50.754;12.990;2023-07-24T07:00:02;6.47;;;4.18;;
5416;SDS011;2731;50.754;12.990;2023-07-24T07:02:49;6.22;;;4.57;;
5416;SDS011;2731;50.754;12.990;2023-07-24T07:05:35;6.40;;;4.25;;
5416;SDS011;2731;50.754;12.990;2023-07-24T07:08:22;11.30;;;4.38;;
5416;SDS011;2731;50.754;12.990;2023-07-24T07:11:10;5.70;;;3.92;;
5416;SDS011;2731;50.754;12.990;2023-07-24T07:14:03;6.20;;;3.97;;
5416;SDS011;2731;50.754;12.990;2023-07-24T07:16:52;7.55;;;4.68;;
5416;SDS011;2731;50.754;12.990;2023-07-24T07:19:39;5.95;;;3.95;;
5416;SDS011;2731;50.754;12.990;2023-07-24T07:22:24;7.88;;;4.78;;
5416;SDS011;2731;50.754;12.990;2023-07-24T07:25:10;6.43;;;4.50;;
5416;SDS011;2731;50.754;12.990;2023-07-24T07:27:56;7.63;;;4.70;;
5416;SDS011;2731;50.754;12.990;2023-07-24T07:30:41;5.93;;;4.55;;
5416;SDS011;2731;50.754;12.990;2023-07-24T07:33:26;6.93;;;5.05;;
5416;SDS011;2731;50.754;12.990;2023-07-24T07:36:15;8.10;;;4.97;;
5416;SDS011;2731;50.754;12.990;2023-07-24T07:39:02;9.00;;;5.30;;
5416;SDS011;2731;50.754;12.990;2023-07-24T07:41:48;8.50;;;5.35;;
5416;SDS011;2731;50.754;12.990;2023-07-24T07:44:15;10.40;;;6.28;;
5416;SDS011;2731;50.754;12.990;2023-07-24T07:46:44;8.27;;;5.47;;
5416;SDS011;2731;50.754;12.990;2023-07-24T07:49:11;11.02;;;6.50;;
5416;SDS011;2731;50.754;12.990;2023-07-24T07:51:39;10.88;;;6.72;;
5416;SDS011;2731;50.754;12.990;2023-07-24T07:54:06;8.95;;;6.05;;
5416;SDS011;2731;50.754;12.990;2023-07-24T07:56:34;11.05;;;5.97;;
5416;SDS011;2731;50.754;12.990;2023-07-24T07:59:01;8.02;;;5.53;;
5416;SDS011;2731;50.754;12.990;2023-07-24T08:01:28;8.07;;;5.30;;
5416;SDS011;2731;50.754;12.990;2023-07-24T08:03:59;10.20;;;5.32;;
5416;SDS011;2731;50.754;12.990;2023-07-24T08:06:25;8.00;;;5.25;;
5416;SDS011;2731;50.754;12.990;2023-07-24T08:08:52;9.13;;;6.13;;
5416;SDS011;2731;50.754;12.990;2023-07-24T08:11:21;10.85;;;6.10;;
5416;SDS011;2731;50.754;12.990;2023-07-24T08:13:48;10.02;;;5.20;;
5416;SDS011;2731;50.754;12.990;2023-07-24T08:16:14;9.40;;;5.47;;
5416;SDS011;2731;50.754;12.990;2023-07-24T08:18:47;5.97;;;4.47;;
5416;SDS011;2731;50.754;12.990;2023-07-24T08:21:19;8.00;;;4.93;;
5416;SDS011;2731;50.754;12.990;2023-07-24T08:23:46;7.85;;;4.57;;
5416;SDS011;2731;50.754;12.990;2023-07-24T08:26:13;7.05;;;4.80;;
5416;SDS011;2731;50.754;12.990;2023-07-24T08:28:40;6.30;;;4.47;;
5416;SDS011;2731;50.754;12.990;2023-07-24T08:31:09;6.65;;;4.50;;
5416;SDS011;2731;50.754;12.990;2023-07-24T08:33:36;7.32;;;4.60;;
5416;SDS011;2731;50.754;12.990;2023-07-24T08:36:06;6.28;;;4.60;;
5416;SDS011;2731;50.754;12.990;2023-07-24T08:38:35;7.18;;;4.70;;
5416;SDS011;2731;50.754;12.990;2023-07-24T08:41:20;6.05;;;4.43;;
5416;SDS011;2731;50.754;12.990;2023-07-24T08:43:47;6.07;;;4.15;;
5416;SDS011;2731;50.754;12.990;2023-07-24T08:46:18;6.22;;;4.53;;
5416;SDS011;2731;50.754;12.990;2023-07-24T08:48:47;5.75;;;3.70;;
5416;SDS011;2731;50.754;12.990;2023-07-24T08:51:15;6.70;;;4.60;;
5416;SDS011;2731;50.754;12.990;2023-07-24T08:53:49;5.47;;;3.95;;
5416;SDS011;2731;50.754;12.990;2023-07-24T08:56:39;5.28;;;3.88;;
5416;SDS011;2731;50.754;12.990;2023-07-24T08:59:09;5.70;;;3.88;;
5416;SDS011;2731;50.754;12.990;2023-07-24T09:01:39;5.45;;;3.85;;
5416;SDS011;2731;50.754;12.990;2023-07-24T09:04:08;4.88;;;3.72;;
5416;SDS011;2731;50.754;12.990;2023-07-24T09:06:36;5.65;;;3.92;;
5416;SDS011;2731;50.754;12.990;2023-07-24T09:09:14;6.07;;;4.50;;
5416;SDS011;2731;50.754;12.990;2023-07-24T09:11:47;6.50;;;4.18;;
5416;SDS011;2731;50.754;12.990;2023-07-24T09:14:27;6.55;;;4.25;;
5416;SDS011;2731;50.754;12.990;2023-07-24T09:17:06;6.88;;;4.82;;
5416;SDS011;2731;50.754;12.990;2023-07-24T09:19:35;8.82;;;5.38;;
5416;SDS011;2731;50.754;12.990;2023-07-24T09:22:09;8.88;;;4.85;;
5416;SDS011;2731;50.754;12.990;2023-07-24T09:24:37;7.43;;;4.50;;
5416;SDS011;2731;50.754;12.990;2023-07-24T09:27:05;7.18;;;4.80;;
5416;SDS011;2731;50.754;12.990;2023-07-24T09:29:34;7.95;;;5.03;;
5416;SDS011;2731;50.754;12.990;2023-07-24T09:32:02;6.70;;;5.22;;
5416;SDS011;2731;50.754;12.990;2023-07-24T09:34:32;7.68;;;4.80;;
5416;SDS011;2731;50.754;12.990;2023-07-24T09:36:59;8.50;;;6.20;;
5416;SDS011;2731;50.754;12.990;2023-07-24T09:39:26;8.90;;;6.20;;
5416;SDS011;2731;50.754;12.990;2023-07-24T09:42:04;7.70;;;5.93;;
5416;SDS011;2731;50.754;12.990;2023-07-24T09:44:33;7.18;;;5.32;;
5416;SDS011;2731;50.754;12.990;2023-07-24T09:47:01;9.07;;;6.15;;
5416;SDS011;2731;50.754;12.990;2023-07-24T09:49:30;9.15;;;6.15;;
5416;SDS011;2731;50.754;12.990;2023-07-24T09:51:57;8.95;;;5.93;;
5416;SDS011;2731;50.754;12.990;2023-07-24T09:54:28;7.95;;;5.05;;
5416;SDS011;2731;50.754;12.990;2023-07-24T09:56:59;9.85;;;5.82;;
5416;SDS011;2731;50.754;12.990;2023-07-24T09:59:28;6.47;;;4.82;;
5416;SDS011;2731;50.754;12.990;2023-07-24T10:02:01;8.10;;;5.80;;
5416;SDS011;2731;50.754;12.990;2023-07-24T10:04:39;8.20;;;5.53;;
5416;SDS011;2731;50.754;12.990;2023-07-24T10:07:07;13.45;;;5.78;;
5416;SDS011;2731;50.754;12.990;2023-07-24T10:09:35;8.10;;;5.15;;
5416;SDS011;2731;50.754;12.990;2023-07-24T10:12:02;7.85;;;5.85;;
5416;SDS011;2731;50.754;12.990;2023-07-24T10:14:28;8.30;;;6.05;;
5416;SDS011;2731;50.754;12.990;2023-07-24T10:16:56;8.60;;;6.00;;
5416;SDS011;2731;50.754;12.990;2023-07-24T10:19:34;11.07;;;5.78;;
5416;SDS011;2731;50.754;12.990;2023-07-24T10:22:02;9.40;;;6.55;;
5416;SDS011;2731;50.754;12.990;2023-07-24T10:24:32;8.95;;;5.93;;
5416;SDS011;2731;50.754;12.990;2023-07-24T10:27:22;8.82;;;5.80;;
5416;SDS011;2731;50.754;12.990;2023-07-24T10:30:11;8.07;;;6.10;;
5416;SDS011;2731;50.754;12.990;2023-07-24T10:32:47;8.60;;;5.75;;
5416;SDS011;2731;50.754;12.990;2023-07-24T10:35:16;10.02;;;6.95;;
5416;SDS011;2731;50.754;12.990;2023-07-24T10:37:58;13.85;;;7.38;;
5416;SDS011;2731;50.754;12.990;2023-07-24T10:40:36;8.90;;;6.28;;
5416;SDS011;2731;50.754;12.990;2023-07-24T10:43:06;10.57;;;6.18;;
5416;SDS011;2731;50.754;12.990;2023-07-24T10:45:40;8.38;;;6.43;;
5416;SDS011;2731;50.754;12.990;2023-07-24T10:48:09;7.55;;;6.00;;
5416;SDS011;2731;50.754;12.990;2023-07-24T10:50:39;8.68;;;5.80;;
5416;SDS011;2731;50.754;12.990;2023-07-24T10:53:10;8.93;;;5.40;;
5416;SDS011;2731;50.754;12.990;2023-07-24T10:55:39;7.60;;;5.43;;
5416;SDS011;2731;50.754;12.990;2023-07-24T10:58:07;9.80;;;6.43;;
5416;SDS011;2731;50.754;12.990;2023-07-24T11:00:36;7.10;;;4.97;;
5416;SDS011;2731;50.754;12.990;2023-07-24T11:03:03;7.55;;;5.40;;
5416;SDS011;2731;50.754;12.990;2023-07-24T11:05:30;8.57;;;6.65;;
5416;SDS011;2731;50.754;12.990;2023-07-24T11:07:58;14.98;;;6.05;;
5416;SDS011;2731;50.754;12.990;2023-07-24T11:10:26;10.45;;;6.45;;
5416;SDS011;2731;50.754;12.990;2023-07-24T11:13:09;10.35;;;6.15;;
5416;SDS011;2731;50.754;12.990;2023-07-24T11:15:42;10.80;;;6.18;;
5416;SDS011;2731;50.754;12.990;2023-07-24T11:18:16;9.27;;;6.20;;
5416;SDS011;2731;50.754;12.990;2023-07-24T11:21:04;10.32;;;7.03;;
5416;SDS011;2731;50.754;12.990;2023-07-24T11:23:50;8.88;;;6.05;;
5416;SDS011;2731;50.754;12.990;2023-07-24T11:26:22;10.93;;;6.50;;
5416;SDS011;2731;50.754;12.990;2023-07-24T11:28:54;9.73;;;5.97;;
5416;SDS011;2731;50.754;12.990;2023-07-24T11:31:22;8.45;;;6.22;;
5416;SDS011;2731;50.754;12.990;2023-07-24T11:33:52;10.68;;;6.78;;
5416;SDS011;2731;50.754;12.990;2023-07-24T11:36:30;13.65;;;7.75;;
5416;SDS011;2731;50.754;12.990;2023-07-24T11:38:58;10.02;;;6.65;;
5416;SDS011;2731;50.754;12.990;2023-07-24T11:41:28;8.77;;;6.10;;
5416;SDS011;2731;50.754;12.990;2023-07-24T11:43:58;9.98;;;5.97;;
5416;SDS011;2731;50.754;12.990;2023-07-24T11:46:26;8.68;;;6.65;;
5416;SDS011;2731;50.754;12.990;2023-07-24T11:48:56;8.95;;;5.75;;
5416;SDS011;2731;50.754;12.990;2023-07-24T11:51:22;7.45;;;5.13;;
5416;SDS011;2731;50.754;12.990;2023-07-24T11:54:16;7.28;;;5.32;;
5416;SDS011;2731;50.754;12.990;2023-07-24T11:56:42;7.82;;;4.95;;
5416;SDS011;2731;50.754;12.990;2023-07-24T11:59:11;9.55;;;5.70;;
5416;SDS011;2731;50.754;12.990;2023-07-24T12:01:50;8.50;;;5.82;;
5416;SDS011;2731;50.754;12.990;2023-07-24T12:04:18;9.05;;;5.90;;
5416;SDS011;2731;50.754;12.990;2023-07-24T12:06:48;10.10;;;6.72;;
5416;SDS011;2731;50.754;12.990;2023-07-24T12:09:17;11.73;;;6.40;;
5416;SDS011;2731;50.754;12.990;2023-07-24T12:11:46;10.00;;;6.88;;
5416;SDS011;2731;50.754;12.990;2023-07-24T12:14:15;10.60;;;7.20;;
5416;SDS011;2731;50.754;12.990;2023-07-24T12:16:44;9.82;;;6.70;;
5416;SDS011;2731;50.754;12.990;2023-07-24T12:19:12;8.50;;;5.68;;
5416;SDS011;2731;50.754;12.990;2023-07-24T12:21:40;8.10;;;5.43;;
5416;SDS011;2731;50.754;12.990;2023-07-24T12:24:08;8.05;;;5.05;;
5416;SDS011;2731;50.754;12.990;2023-07-24T12:26:35;6.75;;;4.70;;
5416;SDS011;2731;50.754;12.990;2023-07-24T12:29:07;6.93;;;5.25;;
5416;SDS011;2731;50.754;12.990;2023-07-24T12:31:36;8.68;;;5.03;;
5416;SDS011;2731;50.754;12.990;2023-07-24T12:34:06;9.90;;;5.05;;
5416;SDS011;2731;50.754;12.990;2023-07-24T12:36:33;6.03;;;4.53;;
5416;SDS011;2731;50.754;12.990;2023-07-24T12:39:00;6.50;;;3.92;;
5416;SDS011;2731;50.754;12.990;2023-07-24T12:41:30;5.88;;;4.05;;
5416;SDS011;2731;50.754;12.990;2023-07-24T12:43:59;5.57;;;3.50;;
5416;SDS011;2731;50.754;12.990;2023-07-24T12:46:28;5.55;;;3.33;;
5416;SDS011;2731;50.754;12.990;2023-07-24T12:48:57;5.28;;;3.45;;
5416;SDS011;2731;50.754;12.990;2023-07-24T12:51:26;6.60;;;4.68;;
5416;SDS011;2731;50.754;12.990;2023-07-24T12:54:03;7.20;;;4.60;;
5416;SDS011;2731;50.754;12.990;2023-07-24T12:56:35;6.88;;;4.32;;
5416;SDS011;2731;50.754;12.990;2023-07-24T12:59:04;7.43;;;4.57;;
5416;SDS011;2731;50.754;12.990;2023-07-24T13:01:32;5.57;;;3.50;;
5416;SDS011;2731;50.754;12.990;2023-07-24T13:04:01;5.47;;;4.05;;
5416;SDS011;2731;50.754;12.990;2023-07-24T13:06:29;6.68;;;4.93;;
5416;SDS011;2731;50.754;12.990;2023-07-24T13:08:58;5.72;;;3.95;;
5416;SDS011;2731;50.754;12.990;2023-07-24T13:11:28;7.28;;;4.68;;
5416;SDS011;2731;50.754;12.990;2023-07-24T13:13:55;6.70;;;4.68;;
5416;SDS011;2731;50.754;12.990;2023-07-24T13:16:26;5.43;;;3.67;;
5416;SDS011;2731;50.754;12.990;2023-07-24T13:19:04;5.85;;;3.92;;
5416;SDS011;2731;50.754;12.990;2023-07-24T13:21:31;7.80;;;4.45;;
5416;SDS011;2731;50.754;12.990;2023-07-24T13:23:59;7.63;;;4.22;;
5416;SDS011;2731;50.754;12.990;2023-07-24T13:26:27;6.45;;;4.22;;
5416;SDS011;2731;50.754;12.990;2023-07-24T13:28:56;8.20;;;4.13;;
5416;SDS011;2731;50.754;12.990;2023-07-24T13:31:24;5.88;;;4.10;;
5416;SDS011;2731;50.754;12.990;2023-07-24T13:33:55;5.63;;;3.92;;
5416;SDS011;2731;50.754;12.990;2023-07-24T13:36:22;7.45;;;4.32;;
5416;SDS011;2731;50.754;12.990;2023-07-24T13:38:50;7.72;;;4.57;;
5416;SDS011;2731;50.754;12.990;2023-07-24T13:41:38;5.95;;;3.65;;
5416;SDS011;2731;50.754;12.990;2023-07-24T13:44:15;6.70;;;4.32;;
5416;SDS011;2731;50.754;12.990;2023-07-24T13:46:42;6.45;;;4.10;;
5416;SDS011;2731;50.754;12.990;2023-07-24T13:49:11;6.50;;;3.97;;
5416;SDS011;2731;50.754;12.990;2023-07-24T13:51:40;7.93;;;4.13;;
5416;SDS011;2731;50.754;12.990;2023-07-24T13:54:08;8.07;;;5.65;;
5416;SDS011;2731;50.754;12.990;2023-07-24T13:56:35;5.70;;;4.50;;
5416;SDS011;2731;50.754;12.990;2023-07-24T13:59:04;11.82;;;6.10;;
5416;SDS011;2731;50.754;12.990;2023-07-24T14:01:33;8.15;;;5.63;;
5416;SDS011;2731;50.754;12.990;2023-07-24T14:04:01;7.65;;;5.22;;
5416;SDS011;2731;50.754;12.990;2023-07-24T14:06:28;10.23;;;5.55;;
5416;SDS011;2731;50.754;12.990;2023-07-24T14:08:55;8.65;;;5.60;;
5416;SDS011;2731;50.754;12.990;2023-07-24T14:11:22;7.82;;;5.45;;
5416;SDS011;2731;50.754;12.990;2023-07-24T14:13:54;7.97;;;5.50;;
5416;SDS011;2731;50.754;12.990;2023-07-24T14:16:23;8.57;;;5.82;;
5416;SDS011;2731;50.754;12.990;2023-07-24T14:18:53;8.27;;;5.53;;
5416;SDS011;2731;50.754;12.990;2023-07-24T14:21:19;7.60;;;5.55;;
5416;SDS011;2731;50.754;12.990;2023-07-24T14:23:47;7.38;;;5.72;;
5416;SDS011;2731;50.754;12.990;2023-07-24T14:26:14;7.90;;;5.18;;
5416;SDS011;2731;50.754;12.990;2023-07-24T14:28:42;8.07;;;5.35;;
5416;SDS011;2731;50.754;12.990;2023-07-24T14:31:12;7.20;;;5.97;;
5416;SDS011;2731;50.754;12.990;2023-07-24T14:33:40;9.30;;;5.60;;
5416;SDS011;2731;50.754;12.990;2023-07-24T14:36:14;8.77;;;6.10;;
5416;SDS011;2731;50.754;12.990;2023-07-24T14:38:42;8.75;;;5.70;;
5416;SDS011;2731;50.754;12.990;2023-07-24T14:41:10;8.65;;;5.85;;
5416;SDS011;2731;50.754;12.990;2023-07-24T14:43:47;8.20;;;6.10;;
5416;SDS011;2731;50.754;12.990;2023-07-24T14:46:16;15.55;;;6.50;;
5416;SDS011;2731;50.754;12.990;2023-07-24T14:48:44;8.60;;;6.32;;
5416;SDS011;2731;50.754;12.990;2023-07-24T14:51:13;8.90;;;6.10;;
5416;SDS011;2731;50.754;12.990;2023-07-24T14:53:40;8.25;;;6.25;;
5416;SDS011;2731;50.754;12.990;2023-07-24T14:56:08;8.70;;;6.13;;
5416;SDS011;2731;50.754;12.990;2023-07-24T14:58:36;11.13;;;6.32;;
5416;SDS011;2731;50.754;12.990;2023-07-24T15:01:17;8.95;;;6.63;;
5416;SDS011;2731;50.754;12.990;2023-07-24T15:03:49;8.30;;;6.20;;
5416;SDS011;2731;50.754;12.990;2023-07-24T15:06:18;9.98;;;6.50;;
5416;SDS011;2731;50.754;12.990;2023-07-24T15:08:46;9.98;;;6.32;;
5416;SDS011;2731;50.754;12.990;2023-07-24T15:11:15;9.82;;;6.70;;
5416;SDS011;2731;50.754;12.990;2023-07-24T15:13:42;9.88;;;6.30;;
5416;SDS011;2731;50.754;12.990;2023-07-24T15:16:08;9.30;;;6.10;;
5416;SDS011;2731;50.754;12.990;2023-07-24T15:18:37;12.25;;;7.03;;
5416;SDS011;2731;50.754;12.990;2023-07-24T15:21:05;9.90;;;6.65;;
5416;SDS011;2731;50.754;12.990;2023-07-24T15:23:34;9.65;;;6.80;;
5416;SDS011;2731;50.754;12.990;2023-07-24T15:26:01;9.13;;;7.20;;
5416;SDS011;2731;50.754;12.990;2023-07-24T15:28:30;10.15;;;7.15;;
5416;SDS011;2731;50.754;12.990;2023-07-24T15:30:58;9.32;;;6.60;;
5416;SDS011;2731;50.754;12.990;2023-07-24T15:33:27;8.07;;;5.88;;
5416;SDS011;2731;50.754;12.990;2023-07-24T15:35:54;8.93;;;6.53;;
5416;SDS011;2731;50.754;12.990;2023-07-24T15:38:22;9.07;;;6.68;;
5416;SDS011;2731;50.754;12.990;2023-07-24T15:40:54;10.00;;;7.13;;
5416;SDS011;2731;50.754;12.990;2023-07-24T15:43:22;14.65;;;7.40;;
5416;SDS011;2731;50.754;12.990;2023-07-24T15:45:51;8.90;;;6.40;;
5416;SDS011;2731;50.754;12.990;2023-07-24T15:48:20;9.43;;;6.47;;
5416;SDS011;2731;50.754;12.990;2023-07-24T15:50:48;8.73;;;6.75;;
5416;SDS011;2731;50.754;12.990;2023-07-24T15:53:17;8.50;;;5.80;;
5416;SDS011;2731;50.754;12.990;2023-07-24T15:55:43;13.40;;;6.75;;
5416;SDS011;2731;50.754;12.990;2023-07-24T15:58:09;10.88;;;6.82;;
5416;SDS011;2731;50.754;12.990;2023-07-24T16:00:38;8.40;;;6.07;;
5416;SDS011;2731;50.754;12.990;2023-07-24T16:03:07;9.73;;;6.30;;